createdAt,value
2022-08-09T00:01:42.316Z,12.04
2022-08-09T00:06:49.478Z,12.05
2022-08-09T00:11:58.025Z,11.93
2022-08-09T00:17:11.280Z,11.82
2022-08-09T00:22:19.290Z,11.76
2022-08-09T00:27:33.974Z,11.65
2022-08-09T00:32:41.160Z,11.65
2022-08-09T00:37:48.984Z,11.64
2022-08-09T00:42:56.723Z,11.62
2022-08-09T00:48:04.088Z,11.56
2022-08-09T00:53:11.257Z,11.66
2022-08-09T00:58:19.101Z,11.92
2022-08-09T01:03:26.617Z,11.88
2022-08-09T01:08:33.500Z,11.92
2022-08-09T01:13:40.724Z,12.16
2022-08-09T01:18:48.522Z,12.34
2022-08-09T01:23:56.218Z,12.35
2022-08-09T01:29:12.540Z,12.2
2022-08-09T01:34:19.733Z,12.0
2022-08-09T01:39:27.647Z,11.92
2022-08-09T01:44:34.803Z,12.08
2022-08-09T01:49:42.569Z,11.98
2022-08-09T01:54:49.763Z,11.96
2022-08-09T02:00:05.274Z,12.01
2022-08-09T02:05:11.899Z,11.92
2022-08-09T02:10:18.879Z,11.76
2022-08-09T02:15:26.529Z,11.62
2022-08-09T02:20:33.491Z,11.47
2022-08-09T02:25:41.314Z,11.42
2022-08-09T02:30:48.551Z,11.42
2022-08-09T02:35:56.418Z,11.55
2022-08-09T02:41:04.290Z,11.72
2022-08-09T02:46:12.474Z,11.86
2022-08-09T02:51:27.579Z,11.94
2022-08-09T02:56:35.686Z,11.9
2022-08-09T03:01:43.687Z,11.8
2022-08-09T03:06:51.126Z,11.74
2022-08-09T03:12:04.060Z,11.71
2022-08-09T03:17:11.936Z,11.66
2022-08-09T03:22:20.689Z,11.65
2022-08-09T03:28:08.534Z,11.61
2022-08-09T03:33:16.669Z,11.57
2022-08-09T03:38:24.597Z,11.54
2022-08-09T03:43:39.097Z,11.53
2022-08-09T03:48:46.673Z,11.65
2022-08-09T03:53:53.856Z,11.76
2022-08-09T03:59:02.435Z,11.85
2022-08-09T04:04:10.963Z,11.93
2022-08-09T04:09:19.051Z,12.02
2022-08-09T04:14:26.936Z,13.67
2022-08-09T04:19:34.871Z,15.9
2022-08-09T04:24:42.504Z,17.46
2022-08-09T04:29:49.900Z,18.71
2022-08-09T04:34:58.139Z,19.72
2022-08-09T04:40:05.362Z,20.54
2022-08-09T04:45:13.112Z,21.7
2022-08-09T04:50:21.404Z,22.07
2022-08-09T04:55:29.427Z,21.88
2022-08-09T05:00:38.480Z,22.43
2022-08-09T05:05:46.732Z,23.4
2022-08-09T05:10:53.659Z,23.82
2022-08-09T05:16:02.003Z,24.02
2022-08-09T05:21:10.128Z,23.92
2022-08-09T05:26:18.975Z,23.62
2022-08-09T05:31:26.927Z,23.53
2022-08-09T05:36:34.131Z,23.48
2022-08-09T05:41:41.338Z,23.42
2022-08-09T05:46:49.173Z,23.12
2022-08-09T05:51:58.055Z,23.28
2022-08-09T05:57:05.670Z,22.42
2022-08-09T06:02:14.081Z,22.84
2022-08-09T06:07:21.946Z,22.8
2022-08-09T06:12:31.053Z,22.04
2022-08-09T06:17:38.810Z,21.96
2022-08-09T06:22:47.193Z,21.5
2022-08-09T06:27:54.458Z,21.67
2022-08-09T06:33:03.291Z,21.65
2022-08-09T06:38:10.935Z,22.01
2022-08-09T06:43:17.978Z,21.56
2022-08-09T06:48:25.177Z,21.66
2022-08-09T06:53:32.646Z,22.0
2022-08-09T06:58:39.891Z,22.54
2022-08-09T07:03:47.415Z,23.56
2022-08-09T07:08:54.911Z,23.32
2022-08-09T07:14:02.538Z,22.78
2022-08-09T07:19:09.030Z,22.76
2022-08-09T07:24:16.853Z,23.53
2022-08-09T07:29:24.406Z,24.1
2022-08-09T07:34:31.034Z,24.78
2022-08-09T07:39:39.849Z,25.4
2022-08-09T07:44:48.731Z,25.12
2022-08-09T07:49:56.057Z,25.36
2022-08-09T07:55:03.348Z,25.31
2022-08-09T08:00:11.736Z,25.62
2022-08-09T08:05:19.623Z,25.92
2022-08-09T08:10:32.682Z,25.08
2022-08-09T08:15:40.306Z,26.1
2022-08-09T08:20:47.774Z,26.35
2022-08-09T08:25:55.430Z,25.58
2022-08-09T08:31:02.637Z,26.72
2022-08-09T08:36:10.461Z,27.31
2022-08-09T08:41:18.025Z,26.6
2022-08-09T08:46:26.015Z,25.28
2022-08-09T08:51:34.618Z,24.98
2022-08-09T08:56:41.183Z,24.61
2022-08-09T09:01:49.528Z,24.94
2022-08-09T09:06:58.984Z,24.73
2022-08-09T09:12:05.651Z,24.28
2022-08-09T09:17:12.540Z,23.84
2022-08-09T09:22:20.643Z,24.79
2022-08-09T09:27:27.574Z,25.02
2022-08-09T09:32:36.475Z,26.62
2022-08-09T09:37:43.211Z,26.26
2022-08-09T09:42:51.186Z,27.0
2022-08-09T09:47:58.808Z,26.72
2022-08-09T09:53:07.252Z,26.84
2022-08-09T09:58:14.165Z,26.3
2022-08-09T10:03:21.218Z,26.51
2022-08-09T10:08:29.517Z,26.71
2022-08-09T10:13:36.855Z,26.94
2022-08-09T10:18:44.700Z,27.62
2022-08-09T10:23:52.922Z,28.62
2022-08-09T10:29:00.524Z,29.03
2022-08-09T10:34:06.938Z,29.16
2022-08-09T10:39:14.949Z,28.38
2022-08-09T10:44:23.261Z,28.16
2022-08-09T10:49:31.070Z,29.36
2022-08-09T10:54:37.019Z,28.35
2022-08-09T10:59:44.896Z,27.42
2022-08-09T11:04:51.518Z,29.19
2022-08-09T11:09:59.586Z,29.05
2022-08-09T11:15:06.567Z,29.02
2022-08-09T11:20:13.630Z,30.38
2022-08-09T11:25:21.240Z,31.47
2022-08-09T11:30:33.855Z,31.15
2022-08-09T11:35:40.028Z,29.08
2022-08-09T11:40:46.943Z,27.73
2022-08-09T11:45:54.179Z,28.35
2022-08-09T11:51:01.978Z,29.92
2022-08-09T11:56:09.979Z,29.38
2022-08-09T12:01:17.524Z,28.2
2022-08-09T12:06:25.481Z,27.9
2022-08-09T12:11:34.069Z,28.22
2022-08-09T12:16:41.053Z,28.25
2022-08-09T12:21:48.551Z,28.73
2022-08-09T12:26:55.595Z,29.64
2022-08-09T12:32:03.419Z,29.43
2022-08-09T12:37:10.622Z,29.3
2022-08-09T12:42:18.742Z,30.44
2022-08-09T12:47:27.689Z,28.79
2022-08-09T12:52:34.943Z,28.12
2022-08-09T12:57:42.090Z,28.38
2022-08-09T13:02:49.213Z,29.96
2022-08-09T13:07:57.523Z,29.2
2022-08-09T13:13:04.817Z,28.06
2022-08-09T13:18:13.070Z,27.53
2022-08-09T13:23:21.559Z,29.3
2022-08-09T13:28:28.394Z,31.06
2022-08-09T13:33:35.585Z,31.06
2022-08-09T13:38:43.633Z,31.82
2022-08-09T13:43:52.037Z,31.6
2022-08-09T13:48:58.679Z,32.42
2022-08-09T13:54:07.579Z,32.63
2022-08-09T13:59:15.619Z,32.18
2022-08-09T14:04:22.625Z,30.49
2022-08-09T14:09:31.120Z,31.25
2022-08-09T14:14:40.580Z,32.7
2022-08-09T14:19:48.056Z,32.4
2022-08-09T14:24:56.470Z,31.26
2022-08-09T14:30:04.137Z,29.44
2022-08-09T14:35:12.725Z,28.54
2022-08-09T14:40:19.498Z,28.19
2022-08-09T14:45:26.357Z,28.16
2022-08-09T14:50:34.963Z,28.12
2022-08-09T14:55:41.821Z,27.54
2022-08-09T15:00:49.023Z,27.15
2022-08-09T15:05:57.005Z,27.01
2022-08-09T15:11:05.195Z,26.97
2022-08-09T15:16:20.177Z,27.08
2022-08-09T15:21:29.547Z,27.42
2022-08-09T15:26:38.155Z,29.25
2022-08-09T15:31:46.566Z,30.47
2022-08-09T15:36:54.958Z,29.52
2022-08-09T15:42:01.474Z,28.08
2022-08-09T15:47:09.142Z,27.14
2022-08-09T15:52:17.374Z,26.7
2022-08-09T15:57:25.335Z,27.07
2022-08-09T16:02:32.702Z,27.42
2022-08-09T16:07:40.382Z,26.75
2022-08-09T16:12:48.440Z,26.36
2022-08-09T16:17:56.630Z,26.23
2022-08-09T16:23:04.474Z,25.84
2022-08-09T16:28:11.738Z,25.56
2022-08-09T16:33:19.307Z,25.38
2022-08-09T16:38:26.013Z,25.29
2022-08-09T16:43:32.698Z,25.2
2022-08-09T16:48:39.633Z,25.17
2022-08-09T16:53:48.045Z,25.16
2022-08-09T16:58:55.214Z,24.96
2022-08-09T17:04:02.380Z,24.72
2022-08-09T17:09:08.697Z,24.54
2022-08-09T17:14:16.648Z,24.38
2022-08-09T17:19:23.991Z,24.22
2022-08-09T17:24:30.300Z,24.07
2022-08-09T17:29:39.287Z,23.98
2022-08-09T17:34:47.431Z,23.98
2022-08-09T17:39:55.820Z,24.0
2022-08-09T17:45:03.795Z,23.85
2022-08-09T17:50:11.432Z,23.65
2022-08-09T17:55:20.055Z,23.52
2022-08-09T18:00:27.196Z,23.38
2022-08-09T18:05:35.435Z,23.22
2022-08-09T18:10:43.798Z,23.0
2022-08-09T18:15:51.257Z,22.82
2022-08-09T18:20:58.815Z,22.58
2022-08-09T18:26:06.648Z,22.3
2022-08-09T18:31:14.179Z,21.92
2022-08-09T18:36:23.126Z,21.51
2022-08-09T18:41:31.010Z,20.98
2022-08-09T18:46:37.694Z,20.46
2022-08-09T18:51:44.523Z,20.12
2022-08-09T18:56:51.766Z,19.78
2022-08-09T19:01:59.283Z,19.41
2022-08-09T19:07:07.670Z,19.14
2022-08-09T19:12:15.116Z,18.72
2022-08-09T19:17:23.282Z,18.44
2022-08-09T19:22:31.743Z,18.23
2022-08-09T19:27:39.198Z,18.06
2022-08-09T19:32:47.944Z,17.94
2022-08-09T19:37:56.017Z,17.79
2022-08-09T19:43:03.266Z,17.75
2022-08-09T19:48:10.864Z,17.75
2022-08-09T19:53:17.893Z,17.58
2022-08-09T19:58:25.017Z,17.65
2022-08-09T20:03:32.152Z,18.09
2022-08-09T20:08:39.951Z,18.32
2022-08-09T20:13:47.857Z,18.35
2022-08-09T20:18:54.936Z,18.35
2022-08-09T20:24:03.418Z,18.33
2022-08-09T20:29:09.970Z,18.19
2022-08-09T20:34:17.808Z,18.32
2022-08-09T20:39:26.172Z,18.33
2022-08-09T20:44:35.057Z,18.17
2022-08-09T20:49:42.296Z,17.85
2022-08-09T20:54:50.322Z,17.56
2022-08-09T21:00:00.200Z,17.36
2022-08-09T21:05:09.215Z,17.28
2022-08-09T21:10:17.681Z,17.14
2022-08-09T21:15:26.161Z,17.07
2022-08-09T21:20:33.485Z,17.04
2022-08-09T21:25:41.365Z,16.93
2022-08-09T21:30:49.501Z,16.62
2022-08-09T21:35:58.299Z,16.25
2022-08-09T21:41:06.160Z,15.89
2022-08-09T21:46:13.333Z,15.8
2022-08-09T21:51:21.111Z,15.64
2022-08-09T21:56:31.488Z,15.4
2022-08-09T22:01:41.170Z,15.42
2022-08-09T22:06:48.563Z,15.38
2022-08-09T22:11:56.597Z,15.3
2022-08-09T22:17:05.290Z,15.26
2022-08-09T22:22:13.650Z,15.02
2022-08-09T22:27:22.000Z,14.94
2022-08-09T22:32:30.358Z,14.82
2022-08-09T22:37:38.205Z,14.54
2022-08-09T22:42:45.846Z,14.36
2022-08-09T22:47:54.974Z,14.12
2022-08-09T22:53:03.364Z,13.92
2022-08-09T22:58:11.728Z,13.74
2022-08-09T23:03:21.595Z,13.68
2022-08-09T23:08:30.094Z,13.75
2022-08-09T23:13:38.468Z,13.88
2022-08-09T23:18:46.585Z,13.82
2022-08-09T23:23:53.822Z,13.71
2022-08-09T23:29:03.445Z,13.71
2022-08-09T23:34:10.779Z,13.85
2022-08-09T23:39:19.788Z,13.68
2022-08-09T23:44:27.891Z,13.57
2022-08-09T23:49:34.934Z,13.39
2022-08-09T23:54:42.728Z,13.42
2022-08-09T23:59:50.919Z,13.42
